createdAt,value
2023-05-21T00:01:07.791Z,16.90
2023-05-21T00:03:36.225Z,16.80
2023-05-21T00:06:06.508Z,16.80
2023-05-21T00:08:34.314Z,16.80
2023-05-21T00:11:01.243Z,16.80
2023-05-21T00:13:28.059Z,16.80
2023-05-21T00:15:54.932Z,16.70
2023-05-21T00:18:22.255Z,16.70
2023-05-21T00:20:51.510Z,16.70
2023-05-21T00:23:19.429Z,16.70
2023-05-21T00:25:46.784Z,16.70
2023-05-21T00:28:16.077Z,16.70
2023-05-21T00:30:43.790Z,16.70
2023-05-21T00:33:13.886Z,16.70
2023-05-21T00:35:41.220Z,16.80
2023-05-21T00:38:10.526Z,16.70
2023-05-21T00:40:37.469Z,16.60
2023-05-21T00:43:10.027Z,16.60
2023-05-21T00:45:39.716Z,16.60
2023-05-21T00:48:08.976Z,16.60
2023-05-21T00:50:36.168Z,16.60
2023-05-21T00:53:03.062Z,16.60
2023-05-21T00:55:30.321Z,16.50
2023-05-21T00:57:57.194Z,16.50
2023-05-21T01:00:26.377Z,16.50
2023-05-21T01:02:53.404Z,16.50
2023-05-21T01:05:22.101Z,16.50
2023-05-21T01:07:49.006Z,16.50
2023-05-21T01:10:16.231Z,16.60
2023-05-21T01:12:47.747Z,16.50
2023-05-21T01:15:17.150Z,16.60
2023-05-21T01:17:48.730Z,16.60
2023-05-21T01:20:20.095Z,16.60
2023-05-21T01:22:54.320Z,16.60
2023-05-21T01:25:22.856Z,16.50
2023-05-21T01:27:50.950Z,16.50
2023-05-21T01:30:20.587Z,16.50
2023-05-21T01:32:59.080Z,16.50
2023-05-21T01:35:33.663Z,16.50
2023-05-21T01:38:09.629Z,16.50
2023-05-21T01:40:43.698Z,16.50
2023-05-21T01:43:11.634Z,16.50
2023-05-21T01:45:42.845Z,16.50
2023-05-21T01:48:12.148Z,16.40
2023-05-21T01:50:43.651Z,16.50
2023-05-21T01:53:10.672Z,16.50
2023-05-21T01:55:41.990Z,16.50
2023-05-21T01:58:11.540Z,16.50
2023-05-21T02:00:40.032Z,16.40
2023-05-21T02:03:07.978Z,16.30
2023-05-21T02:05:35.705Z,16.20
2023-05-21T02:08:05.456Z,16.20
2023-05-21T02:10:36.075Z,16.20
2023-05-21T02:13:03.436Z,16.20
2023-05-21T02:15:35.453Z,16.20
2023-05-21T02:18:03.981Z,16.20
2023-05-21T02:20:31.358Z,16.10
2023-05-21T02:22:58.313Z,16.10
2023-05-21T02:25:25.346Z,16.10
2023-05-21T02:27:53.905Z,16.10
2023-05-21T02:30:25.113Z,16.10
2023-05-21T02:32:55.839Z,16.10
2023-05-21T02:35:24.971Z,16.10
2023-05-21T02:37:51.813Z,16.10
2023-05-21T02:40:19.193Z,16.10
2023-05-21T02:42:48.316Z,16.10
2023-05-21T02:45:19.160Z,16.10
2023-05-21T02:47:46.673Z,16.10
2023-05-21T02:50:16.456Z,16.10
2023-05-21T02:52:53.464Z,16.10
2023-05-21T02:55:22.665Z,16.10
2023-05-21T02:57:52.112Z,16.00
2023-05-21T03:00:24.022Z,16.00
2023-05-21T03:02:51.302Z,16.00
2023-05-21T03:05:18.294Z,16.00
2023-05-21T03:07:45.186Z,16.00
2023-05-21T03:10:12.182Z,16.00
2023-05-21T03:12:41.302Z,16.00
2023-05-21T03:15:14.656Z,16.00
2023-05-21T03:17:48.228Z,16.10
2023-05-21T03:20:19.744Z,16.00
2023-05-21T03:22:48.146Z,16.00
2023-05-21T03:25:15.087Z,16.00
2023-05-21T03:27:41.994Z,16.00
2023-05-21T03:30:24.691Z,15.90
2023-05-21T03:33:14.168Z,15.90
2023-05-21T03:35:42.976Z,15.90
2023-05-21T03:38:14.300Z,15.90
2023-05-21T03:40:46.996Z,15.90
2023-05-21T03:43:16.279Z,16.00
2023-05-21T03:45:44.412Z,15.90
2023-05-21T03:48:40.141Z,15.90
2023-05-21T03:51:11.220Z,15.90
2023-05-21T03:53:38.116Z,16.00
2023-05-21T03:56:05.517Z,16.00
2023-05-21T03:58:35.088Z,15.90
2023-05-21T04:01:02.800Z,15.90
2023-05-21T04:03:33.191Z,15.90
2023-05-21T04:06:04.127Z,15.90
2023-05-21T04:08:39.640Z,15.90
2023-05-21T04:11:06.629Z,15.90
2023-05-21T04:13:33.524Z,16.00
2023-05-21T04:16:02.983Z,16.00
2023-05-21T04:18:29.962Z,16.00
2023-05-21T04:20:58.666Z,16.00
2023-05-21T04:23:25.856Z,16.10
2023-05-21T04:25:57.104Z,16.10
2023-05-21T04:28:24.177Z,16.10
2023-05-21T04:30:53.287Z,16.10
2023-05-21T04:33:20.299Z,16.10
2023-05-21T04:35:50.227Z,16.10
2023-05-21T04:38:19.900Z,16.20
2023-05-21T04:40:52.681Z,16.20
2023-05-21T04:43:26.051Z,16.30
2023-05-21T04:45:58.513Z,16.30
2023-05-21T04:48:28.815Z,16.30
2023-05-21T04:50:56.754Z,16.30
2023-05-21T04:53:26.733Z,16.40
2023-05-21T04:55:59.371Z,16.40
2023-05-21T04:58:28.664Z,16.50
2023-05-21T05:00:56.161Z,16.50
2023-05-21T05:03:23.224Z,16.60
2023-05-21T05:05:51.591Z,16.60
2023-05-21T05:08:23.783Z,16.70
2023-05-21T05:10:50.773Z,16.70
2023-05-21T05:13:17.635Z,16.80
2023-05-21T05:15:44.561Z,16.80
2023-05-21T05:18:13.852Z,16.90
2023-05-21T05:20:43.142Z,16.90
2023-05-21T05:23:10.790Z,16.80
2023-05-21T05:25:38.443Z,16.90
2023-05-21T05:28:05.604Z,16.90
2023-05-21T05:30:33.045Z,16.90
2023-05-21T05:33:13.877Z,17.00
2023-05-21T05:35:43.624Z,17.00
2023-05-21T05:38:13.568Z,17.00
2023-05-21T05:40:40.798Z,17.00
2023-05-21T05:43:07.700Z,17.10
2023-05-21T05:45:35.048Z,17.10
2023-05-21T05:48:05.301Z,17.20
2023-05-21T05:50:32.350Z,17.20
2023-05-21T05:52:59.280Z,17.30
2023-05-21T05:55:26.951Z,17.30
2023-05-21T05:57:57.245Z,17.30
2023-05-21T06:00:24.280Z,17.40
2023-05-21T06:02:56.366Z,17.40
2023-05-21T06:05:25.815Z,17.40
2023-05-21T06:07:57.015Z,17.50
2023-05-21T06:10:25.145Z,17.60
2023-05-21T06:12:55.112Z,17.60
2023-05-21T06:15:22.147Z,17.60
2023-05-21T06:17:48.985Z,17.60
2023-05-21T06:20:16.457Z,17.70
2023-05-21T06:22:43.468Z,17.70
2023-05-21T06:25:11.142Z,17.70
2023-05-21T06:27:41.082Z,17.70
2023-05-21T06:30:15.992Z,17.80
2023-05-21T06:32:45.775Z,17.80
2023-05-21T06:35:12.880Z,17.90
2023-05-21T06:37:39.972Z,17.90
2023-05-21T06:40:08.314Z,17.90
2023-05-21T06:42:42.104Z,17.90
2023-05-21T06:45:28.980Z,18.00
2023-05-21T06:48:00.656Z,18.00
2023-05-21T06:50:30.099Z,18.00
2023-05-21T06:53:01.260Z,18.10
2023-05-21T06:55:29.296Z,18.10
2023-05-21T06:58:22.544Z,18.10
2023-05-21T07:00:52.885Z,18.20
2023-05-21T07:03:22.622Z,18.20
2023-05-21T07:05:49.662Z,18.30
2023-05-21T07:08:16.843Z,18.40
2023-05-21T07:10:43.968Z,18.40
2023-05-21T07:13:13.761Z,18.50
2023-05-21T07:15:42.873Z,18.60
2023-05-21T07:18:09.910Z,18.70
2023-05-21T07:20:39.868Z,18.80
2023-05-21T07:23:14.777Z,18.80
2023-05-21T07:25:46.077Z,19.00
2023-05-21T07:28:16.172Z,19.10
2023-05-21T07:30:43.832Z,19.20
2023-05-21T07:33:14.658Z,19.30
2023-05-21T07:35:44.885Z,19.40
2023-05-21T07:38:14.145Z,19.50
2023-05-21T07:40:41.164Z,19.50
2023-05-21T07:43:08.414Z,19.60
2023-05-21T07:45:37.369Z,19.70
2023-05-21T07:48:06.021Z,19.80
2023-05-21T07:50:35.078Z,19.90
2023-05-21T07:53:02.035Z,20.00
2023-05-21T07:55:33.135Z,20.20
2023-05-21T07:58:01.608Z,20.30
2023-05-21T08:00:43.329Z,20.30
2023-05-21T08:03:16.265Z,20.50
2023-05-21T08:05:50.800Z,20.60
2023-05-21T08:08:19.325Z,20.80
2023-05-21T08:10:53.027Z,20.90
2023-05-21T08:13:23.490Z,21.00
2023-05-21T08:15:52.827Z,21.10
2023-05-21T08:18:23.918Z,21.10
2023-05-21T08:20:55.696Z,21.20
2023-05-21T08:23:24.481Z,21.30
2023-05-21T08:25:54.837Z,21.40
2023-05-21T08:28:24.745Z,21.70
2023-05-21T08:30:55.399Z,22.00
2023-05-21T08:33:26.477Z,22.30
2023-05-21T08:35:53.707Z,22.70
2023-05-21T08:38:31.305Z,23.00
2023-05-21T08:41:00.833Z,23.40
2023-05-21T08:43:30.527Z,24.00
2023-05-21T08:46:03.694Z,25.10
2023-05-21T08:48:34.732Z,26.30
2023-05-21T08:51:01.777Z,26.70
2023-05-21T08:53:38.332Z,26.80
2023-05-21T08:56:09.427Z,26.20
2023-05-21T08:58:47.295Z,25.80
2023-05-21T09:01:19.540Z,25.30
2023-05-21T09:03:50.381Z,24.70
2023-05-21T09:06:17.809Z,24.10
2023-05-21T09:08:52.462Z,24.50
2023-05-21T09:11:27.374Z,25.40
2023-05-21T09:13:59.933Z,26.20
2023-05-21T09:16:35.688Z,26.30
2023-05-21T09:19:04.951Z,26.10
2023-05-21T09:21:35.444Z,25.80
2023-05-21T09:24:30.185Z,25.70
2023-05-21T09:26:59.170Z,25.80
2023-05-21T09:29:29.737Z,25.80
2023-05-21T09:32:05.762Z,26.30
2023-05-21T09:34:36.694Z,27.10
2023-05-21T09:37:16.388Z,27.50
2023-05-21T09:39:53.591Z,27.90
2023-05-21T09:42:26.241Z,28.30
2023-05-21T09:44:53.424Z,28.50
2023-05-21T09:47:24.146Z,28.30
2023-05-21T09:49:51.270Z,28.10
2023-05-21T09:52:25.758Z,27.60
2023-05-21T09:54:53.342Z,27.40
2023-05-21T09:57:26.739Z,27.40
2023-05-21T09:59:54.067Z,27.70
2023-05-21T10:02:23.010Z,27.90
2023-05-21T10:04:51.351Z,27.80
2023-05-21T10:07:27.095Z,27.20
2023-05-21T10:09:58.053Z,26.70
2023-05-21T10:12:30.359Z,26.30
2023-05-21T10:15:04.696Z,26.10
2023-05-21T10:17:34.780Z,26.00
2023-05-21T10:20:04.853Z,25.90
2023-05-21T10:22:32.295Z,25.90
2023-05-21T10:25:03.552Z,25.90
2023-05-21T10:27:33.221Z,25.80
2023-05-21T10:30:02.858Z,25.90
2023-05-21T10:32:33.393Z,25.80
2023-05-21T10:35:01.709Z,25.90
2023-05-21T10:37:33.576Z,25.90
2023-05-21T10:40:02.790Z,25.90
2023-05-21T10:42:34.812Z,25.80
2023-05-21T10:45:43.008Z,25.80
2023-05-21T10:48:10.179Z,25.80
2023-05-21T10:50:58.871Z,25.80
2023-05-21T10:53:36.581Z,25.80
2023-05-21T10:56:48.855Z,25.80
2023-05-21T10:59:33.358Z,25.80
2023-05-21T11:02:01.876Z,25.80
2023-05-21T11:04:31.700Z,25.70
2023-05-21T11:06:59.290Z,25.70
2023-05-21T11:09:26.994Z,25.70
2023-05-21T11:11:58.138Z,25.60
2023-05-21T11:14:39.960Z,25.60
2023-05-21T11:17:13.884Z,25.70
2023-05-21T11:19:51.411Z,25.80
2023-05-21T11:22:28.702Z,25.90
2023-05-21T11:25:02.253Z,26.00
2023-05-21T11:27:40.155Z,26.00
2023-05-21T11:30:17.992Z,26.10
2023-05-21T11:33:11.133Z,26.20
2023-05-21T11:35:50.126Z,26.20
2023-05-21T11:38:17.873Z,26.30
2023-05-21T11:41:01.239Z,26.40
2023-05-21T11:43:30.919Z,26.50
2023-05-21T11:45:57.840Z,26.50
2023-05-21T11:48:28.918Z,26.80
2023-05-21T11:50:57.532Z,27.50
2023-05-21T11:53:24.539Z,27.40
2023-05-21T11:55:57.310Z,27.20
2023-05-21T11:58:26.607Z,27.00
2023-05-21T12:00:53.708Z,26.80
2023-05-21T12:03:26.584Z,26.60
2023-05-21T12:05:54.216Z,26.60
2023-05-21T12:08:27.293Z,26.60
2023-05-21T12:10:59.809Z,26.50
2023-05-21T12:13:29.107Z,26.50
2023-05-21T12:15:56.329Z,26.50
2023-05-21T12:18:23.324Z,26.50
2023-05-21T12:20:52.001Z,26.50
2023-05-21T12:23:25.546Z,26.40
2023-05-21T12:25:55.204Z,26.40
2023-05-21T12:28:22.927Z,26.30
2023-05-21T12:30:50.042Z,26.40
2023-05-21T12:33:19.735Z,26.40
2023-05-21T12:35:50.264Z,26.40
2023-05-21T12:38:19.532Z,26.50
2023-05-21T12:40:48.881Z,26.50
2023-05-21T12:43:15.818Z,26.40
2023-05-21T12:45:43.666Z,26.40
2023-05-21T12:48:13.250Z,26.40
2023-05-21T12:50:43.368Z,26.40
2023-05-21T12:53:12.831Z,26.50
2023-05-21T12:55:40.490Z,26.50
2023-05-21T12:58:13.803Z,26.50
2023-05-21T13:00:43.300Z,26.60
2023-05-21T13:03:10.362Z,26.50
2023-05-21T13:05:42.524Z,26.50
2023-05-21T13:08:10.588Z,26.50
2023-05-21T13:10:37.860Z,26.30
2023-05-21T13:13:05.115Z,26.40
2023-05-21T13:15:34.240Z,26.50
2023-05-21T13:18:01.450Z,26.50
2023-05-21T13:20:48.039Z,26.60
2023-05-21T13:23:18.775Z,26.60
2023-05-21T13:25:45.709Z,26.70
2023-05-21T13:28:14.909Z,26.90
2023-05-21T13:30:42.112Z,26.90
2023-05-21T13:33:09.198Z,26.90
2023-05-21T13:35:36.349Z,26.80
2023-05-21T13:38:03.444Z,26.80
2023-05-21T13:40:30.738Z,26.70
2023-05-21T13:43:01.092Z,26.70
2023-05-21T13:45:29.279Z,26.60
2023-05-21T13:47:56.592Z,26.60
2023-05-21T13:50:24.310Z,26.60
2023-05-21T13:52:51.255Z,26.80
2023-05-21T13:55:20.497Z,26.90
2023-05-21T13:57:49.752Z,27.20
2023-05-21T14:00:18.804Z,28.00
2023-05-21T14:02:50.766Z,29.00
2023-05-21T14:05:17.982Z,29.20
2023-05-21T14:07:48.213Z,28.80
2023-05-21T14:10:15.742Z,28.60
2023-05-21T14:12:42.929Z,29.00
2023-05-21T14:15:10.691Z,29.50
2023-05-21T14:17:40.343Z,29.20
2023-05-21T14:20:10.402Z,28.70
2023-05-21T14:22:38.105Z,28.70
2023-05-21T14:25:08.038Z,28.40
2023-05-21T14:27:37.710Z,28.00
2023-05-21T14:30:05.526Z,27.60
2023-05-21T14:32:34.948Z,27.50
2023-05-21T14:35:07.364Z,27.50
2023-05-21T14:37:34.343Z,27.60
2023-05-21T14:40:05.348Z,27.60
2023-05-21T14:42:32.261Z,27.70
2023-05-21T14:44:59.443Z,27.80
2023-05-21T14:47:26.543Z,28.10
2023-05-21T14:49:53.531Z,28.20
2023-05-21T14:52:20.633Z,28.30
2023-05-21T14:54:51.965Z,27.90
2023-05-21T14:57:21.943Z,27.70
2023-05-21T14:59:49.107Z,27.60
2023-05-21T15:02:16.192Z,27.40
2023-05-21T15:04:45.858Z,27.10
2023-05-21T15:07:17.334Z,26.90
2023-05-21T15:09:46.549Z,26.80
2023-05-21T15:12:13.622Z,26.60
2023-05-21T15:14:41.070Z,26.50
2023-05-21T15:17:10.232Z,26.50
2023-05-21T15:19:40.751Z,26.40
2023-05-21T15:22:07.791Z,26.30
2023-05-21T15:24:36.847Z,26.10
2023-05-21T15:27:06.336Z,25.90
2023-05-21T15:29:33.217Z,25.60
2023-05-21T15:32:05.224Z,25.50
2023-05-21T15:34:32.880Z,25.40
2023-05-21T15:37:02.772Z,25.40
2023-05-21T15:39:30.383Z,25.30
2023-05-21T15:41:57.581Z,25.20
2023-05-21T15:44:27.129Z,25.20
2023-05-21T15:46:54.834Z,25.10
2023-05-21T15:49:21.937Z,25.10
2023-05-21T15:51:49.162Z,25.10
2023-05-21T15:54:18.739Z,25.10
2023-05-21T15:56:50.388Z,25.20
2023-05-21T15:59:19.683Z,25.20
2023-05-21T16:01:47.102Z,25.20
2023-05-21T16:04:20.191Z,25.20
2023-05-21T16:06:51.864Z,25.30
2023-05-21T16:09:21.818Z,25.30
2023-05-21T16:11:53.278Z,25.40
2023-05-21T16:14:23.686Z,25.40
2023-05-21T16:16:52.906Z,25.40
2023-05-21T16:19:22.076Z,25.40
2023-05-21T16:21:49.093Z,25.30
2023-05-21T16:24:18.374Z,25.30
2023-05-21T16:26:49.389Z,25.30
2023-05-21T16:29:16.365Z,25.30
2023-05-21T16:31:43.322Z,25.30
2023-05-21T16:34:17.521Z,25.20
2023-05-21T16:36:46.713Z,25.30
2023-05-21T16:39:15.993Z,25.20
2023-05-21T16:41:43.903Z,25.20
2023-05-21T16:44:15.447Z,25.10
2023-05-21T16:46:45.004Z,25.00
2023-05-21T16:49:14.360Z,25.00
2023-05-21T16:51:43.742Z,25.00
2023-05-21T16:54:15.595Z,24.90
2023-05-21T16:56:47.054Z,24.90
2023-05-21T16:59:13.982Z,24.90
2023-05-21T17:01:41.026Z,24.90
2023-05-21T17:04:08.174Z,24.80
2023-05-21T17:06:35.184Z,24.80
2023-05-21T17:09:03.506Z,24.80
2023-05-21T17:11:34.917Z,24.80
2023-05-21T17:14:01.935Z,24.70
2023-05-21T17:16:31.278Z,24.70
2023-05-21T17:19:05.246Z,24.70
2023-05-21T17:21:32.151Z,24.70
2023-05-21T17:23:59.051Z,24.60
2023-05-21T17:26:28.245Z,24.60
2023-05-21T17:28:55.176Z,24.60
2023-05-21T17:31:22.274Z,24.50
2023-05-21T17:33:49.366Z,24.50
2023-05-21T17:36:16.322Z,24.40
2023-05-21T17:38:43.941Z,24.30
2023-05-21T17:41:14.839Z,24.30
2023-05-21T17:43:41.718Z,24.30
2023-05-21T17:46:09.382Z,24.30
2023-05-21T17:48:39.549Z,24.20
2023-05-21T17:51:06.472Z,24.20
2023-05-21T17:53:35.562Z,24.10
2023-05-21T17:56:08.001Z,24.10
2023-05-21T17:58:35.200Z,24.00
2023-05-21T18:01:02.701Z,24.00
2023-05-21T18:03:30.501Z,24.00
2023-05-21T18:05:57.399Z,23.90
2023-05-21T18:08:27.055Z,23.90
2023-05-21T18:10:54.184Z,23.80
2023-05-21T18:13:21.220Z,23.80
2023-05-21T18:15:48.282Z,23.80
2023-05-21T18:18:20.724Z,23.80
2023-05-21T18:20:51.538Z,23.80
2023-05-21T18:23:21.029Z,23.70
2023-05-21T18:25:47.974Z,23.70
2023-05-21T18:28:17.398Z,23.70
2023-05-21T18:30:46.544Z,23.70
2023-05-21T18:33:16.761Z,23.60
2023-05-21T18:35:44.524Z,23.60
2023-05-21T18:38:11.813Z,23.50
2023-05-21T18:40:39.030Z,23.50
2023-05-21T18:43:06.454Z,23.50
2023-05-21T18:45:36.057Z,23.50
2023-05-21T18:48:03.269Z,23.50
2023-05-21T18:50:31.998Z,23.40
2023-05-21T18:53:01.188Z,23.40
2023-05-21T18:55:30.478Z,23.40
2023-05-21T18:58:01.895Z,23.30
2023-05-21T19:00:28.997Z,23.30
2023-05-21T19:02:58.599Z,23.30
2023-05-21T19:05:25.703Z,23.30
2023-05-21T19:07:52.656Z,23.20
2023-05-21T19:10:22.139Z,23.20
2023-05-21T19:12:49.173Z,23.20
2023-05-21T19:15:16.158Z,23.20
2023-05-21T19:17:43.151Z,23.10
2023-05-21T19:20:27.539Z,23.00
2023-05-21T19:22:55.030Z,23.00
2023-05-21T19:25:24.594Z,23.00
2023-05-21T19:27:56.577Z,23.00
2023-05-21T19:30:26.722Z,23.00
2023-05-21T19:32:56.375Z,22.90
2023-05-21T19:35:23.390Z,22.90
2023-05-21T19:37:50.352Z,22.80
2023-05-21T19:40:17.699Z,22.80
2023-05-21T19:42:49.064Z,22.80
2023-05-21T19:45:21.406Z,22.80
2023-05-21T19:47:51.270Z,22.70
2023-05-21T19:50:19.143Z,22.70
2023-05-21T19:52:46.100Z,22.70
2023-05-21T19:55:14.026Z,22.70
2023-05-21T19:57:43.303Z,22.70
2023-05-21T20:00:13.777Z,22.60
2023-05-21T20:02:41.141Z,22.60
2023-05-21T20:05:10.657Z,22.60
2023-05-21T20:07:37.783Z,22.60
2023-05-21T20:10:05.131Z,22.60
2023-05-21T20:12:32.153Z,22.60
2023-05-21T20:15:00.773Z,22.50
2023-05-21T20:17:28.734Z,22.60
2023-05-21T20:19:59.301Z,22.50
2023-05-21T20:22:30.819Z,22.50
2023-05-21T20:25:01.767Z,22.50
2023-05-21T20:27:28.739Z,22.50
2023-05-21T20:29:55.779Z,22.40
2023-05-21T20:32:22.906Z,22.40
2023-05-21T20:35:02.187Z,22.40
2023-05-21T20:37:32.453Z,22.40
2023-05-21T20:39:59.810Z,22.40
2023-05-21T20:42:28.707Z,22.40
2023-05-21T20:44:59.072Z,22.40
2023-05-21T20:47:31.911Z,22.40
2023-05-21T20:50:03.570Z,22.30
2023-05-21T20:52:31.099Z,22.30
2023-05-21T20:55:04.356Z,22.30
2023-05-21T20:57:31.380Z,22.30
2023-05-21T20:59:58.219Z,22.30
2023-05-21T21:02:28.532Z,22.20
2023-05-21T21:04:56.317Z,22.20
2023-05-21T21:07:23.318Z,22.20
2023-05-21T21:09:52.464Z,22.10
2023-05-21T21:12:26.594Z,22.10
2023-05-21T21:14:57.124Z,22.10
2023-05-21T21:17:24.162Z,22.10
2023-05-21T21:19:51.089Z,22.10
2023-05-21T21:22:18.573Z,22.00
2023-05-21T21:24:47.859Z,22.00
2023-05-21T21:27:14.870Z,22.00
2023-05-21T21:29:41.838Z,21.90
2023-05-21T21:32:10.991Z,21.90
2023-05-21T21:34:37.869Z,21.90
2023-05-21T21:37:04.928Z,21.90
2023-05-21T21:39:31.840Z,21.80
2023-05-21T21:41:58.836Z,21.80
2023-05-21T21:44:25.964Z,21.80
2023-05-21T21:46:52.914Z,21.70
2023-05-21T21:49:19.788Z,21.70
2023-05-21T21:51:46.705Z,21.70
2023-05-21T21:54:18.324Z,21.60
2023-05-21T21:56:45.293Z,21.70
2023-05-21T21:59:14.289Z,21.60
2023-05-21T22:01:42.216Z,21.60
2023-05-21T22:04:09.511Z,21.60
2023-05-21T22:06:38.932Z,21.50
2023-05-21T22:09:08.981Z,21.50
2023-05-21T22:11:36.343Z,21.40
2023-05-21T22:14:04.405Z,21.40
2023-05-21T22:16:33.977Z,21.40
2023-05-21T22:19:03.702Z,21.30
2023-05-21T22:21:32.991Z,21.30
2023-05-21T22:24:00.490Z,21.30
2023-05-21T22:26:32.170Z,21.20
2023-05-21T22:28:59.156Z,21.30
2023-05-21T22:31:31.006Z,21.20
2023-05-21T22:33:58.054Z,21.20
2023-05-21T22:36:25.023Z,21.20
2023-05-21T22:38:51.868Z,21.10
2023-05-21T22:41:23.339Z,21.10
2023-05-21T22:43:50.429Z,21.10
2023-05-21T22:46:19.892Z,21.10
2023-05-21T22:48:49.671Z,21.00
2023-05-21T22:51:16.679Z,21.00
2023-05-21T22:53:43.615Z,21.00
2023-05-21T22:56:13.147Z,21.00
2023-05-21T22:58:40.141Z,21.00
2023-05-21T23:01:11.985Z,20.90
2023-05-21T23:03:38.865Z,20.90
2023-05-21T23:06:06.145Z,20.90
2023-05-21T23:08:35.767Z,20.90
2023-05-21T23:11:04.942Z,20.80
2023-05-21T23:13:34.363Z,20.80
2023-05-21T23:16:01.426Z,20.80
2023-05-21T23:18:32.783Z,20.80
2023-05-21T23:20:59.809Z,20.80
2023-05-21T23:23:29.275Z,20.70
2023-05-21T23:25:59.120Z,20.70
2023-05-21T23:28:26.477Z,20.70
2023-05-21T23:30:53.588Z,20.70
2023-05-21T23:33:22.577Z,20.70
2023-05-21T23:35:49.577Z,20.60
2023-05-21T23:38:16.624Z,20.60
2023-05-21T23:40:50.567Z,20.60
2023-05-21T23:43:17.803Z,20.50
2023-05-21T23:45:44.867Z,20.50
2023-05-21T23:48:11.995Z,20.50
2023-05-21T23:50:39.116Z,20.50
2023-05-21T23:53:08.362Z,20.50
2023-05-21T23:55:36.402Z,20.40
2023-05-21T23:58:03.892Z,20.40
